Time;durP1;ratioP1;P1;durP2;ratioP2;P2;SDS_P1;SDS_P2;PMS_P1;PMS_P2;Temp;Humidity;BMP_temperature;BMP_pressure;BME280_temperature;BME280_humidity;BME280_pressure;Samples;Min_cycle;Max_cycle;Signal;HPM_P1;HPM_P2
2023/07/16 00:01:45;;;;;;;;;;;24.50;61.50;;;;;;5084870;28;19921;-39
2023/07/16 00:04:11;;;;;;;;;;;24.50;61.10;;;;;;5080973;28;19951;-39
2023/07/16 00:06:37;;;;;;;;;;;24.50;61.30;;;;;;5082896;28;20484;-38
2023/07/16 00:09:03;;;;;;;;;;;24.50;61.60;;;;;;5085106;28;19969;-38
2023/07/16 00:11:29;;;;;;;;;;;24.50;60.90;;;;;;5083345;28;19943;-39
2023/07/16 00:13:55;;;;;;;;;;;24.50;61.00;;;;;;5084922;28;19912;-39
2023/07/16 00:16:21;;;;;;;;;;;24.50;60.30;;;;;;5085133;28;19930;-38
2023/07/16 00:18:47;;;;;;;;;;;24.40;60.70;;;;;;5084755;28;19916;-39
2023/07/16 00:21:13;;;;;;;;;;;24.40;59.80;;;;;;5084242;28;20297;-38
2023/07/16 00:23:39;;;;;;;;;;;24.40;60.10;;;;;;5084387;28;19993;-38
2023/07/16 00:26:05;;;;;;;;;;;24.40;60.00;;;;;;5084564;28;19940;-39
2023/07/16 00:28:31;;;;;;;;;;;24.30;59.70;;;;;;5084252;28;19912;-38
2023/07/16 00:30:56;;;;;;;;;;;24.30;59.90;;;;;;5083952;28;19915;-38
2023/07/16 00:33:22;;;;;;;;;;;24.30;59.70;;;;;;5084773;28;20574;-39
2023/07/16 00:35:51;;;;;;;;;;;24.30;60.50;;;;;;5083812;28;19921;-38
2023/07/16 00:38:17;;;;;;;;;;;24.30;60.10;;;;;;5084752;28;20498;-39
2023/07/16 00:40:43;;;;;;;;;;;24.20;60.20;;;;;;5084127;28;19920;-39
2023/07/16 00:43:10;;;;;;;;;;;24.30;60.90;;;;;;5084188;28;20644;-39
2023/07/16 00:45:36;;;;;;;;;;;24.20;60.00;;;;;;5083957;28;19913;-39
2023/07/16 00:48:01;;;;;;;;;;;24.20;61.10;;;;;;5065670;28;19916;-38
2023/07/16 00:50:27;;;;;;;;;;;24.20;60.70;;;;;;5083948;28;19966;-39
2023/07/16 00:52:53;;;;;;;;;;;24.10;61.00;;;;;;5084247;28;19980;-38
2023/07/16 00:55:19;;;;;;;;;;;24.10;60.50;;;;;;5084334;28;19912;-39
2023/07/16 00:57:45;;;;;;;;;;;24.10;60.10;;;;;;5083832;28;19912;-38
2023/07/16 01:00:11;;;;;;;;;;;24.10;60.00;;;;;;5084061;28;20352;-38
2023/07/16 01:02:37;;;;;;;;;;;24.10;59.50;;;;;;5084179;28;19965;-39
2023/07/16 01:05:03;;;;;;;;;;;24.00;59.20;;;;;;5077572;28;20258;-38
2023/07/16 01:07:29;;;;;;;;;;;24.00;59.30;;;;;;5083907;28;20015;-38
2023/07/16 01:09:55;;;;;;;;;;;24.00;59.50;;;;;;5078959;28;19919;-38
2023/07/16 01:12:21;;;;;;;;;;;24.00;59.40;;;;;;5082654;28;19909;-39
2023/07/16 01:14:47;;;;;;;;;;;24.00;59.30;;;;;;5065577;28;19908;-38
2023/07/16 01:17:12;;;;;;;;;;;23.90;59.60;;;;;;5066046;28;20353;-38
2023/07/16 01:19:38;;;;;;;;;;;23.90;59.50;;;;;;5082782;28;20356;-38
2023/07/16 01:22:31;;;;;;;;;;;23.90;59.40;;;;;;5082214;28;19959;-39
2023/07/16 01:25:01;;;;;;;;;;;23.90;59.50;;;;;;5050817;28;19912;-38
2023/07/16 01:27:46;;;;;;;;;;;23.80;59.80;;;;;;5065645;28;19904;-39
2023/07/16 01:30:15;;;;;;;;;;;23.80;60.50;;;;;;5065614;28;20576;-38
2023/07/16 01:32:41;;;;;;;;;;;23.80;59.80;;;;;;5065529;28;19904;-39
2023/07/16 01:35:07;;;;;;;;;;;23.80;60.30;;;;;;5058978;28;19926;-38
2023/07/16 01:37:33;;;;;;;;;;;23.80;60.10;;;;;;5082454;28;19908;-38
2023/07/16 01:39:59;;;;;;;;;;;23.70;60.10;;;;;;5083159;28;19908;-38
2023/07/16 01:42:25;;;;;;;;;;;23.70;59.90;;;;;;5064327;28;19916;-39
2023/07/16 01:44:50;;;;;;;;;;;23.70;59.60;;;;;;5083179;28;19919;-39
2023/07/16 01:47:22;;;;;;;;;;;23.70;59.40;;;;;;5083546;28;19920;-39
2023/07/16 01:49:48;;;;;;;;;;;23.60;59.20;;;;;;5064825;28;21057;-38
2023/07/16 01:52:14;;;;;;;;;;;23.60;59.10;;;;;;5082973;28;20445;-38
2023/07/16 01:54:40;;;;;;;;;;;23.60;59.40;;;;;;5080480;28;19954;-38
2023/07/16 01:57:06;;;;;;;;;;;23.60;60.70;;;;;;5083157;28;19918;-39
2023/07/16 01:59:32;;;;;;;;;;;23.60;62.80;;;;;;5080788;28;19904;-38
2023/07/16 02:01:58;;;;;;;;;;;23.60;63.90;;;;;;5080375;28;20419;-38
2023/07/16 02:04:24;;;;;;;;;;;23.50;63.90;;;;;;5080818;28;19904;-38
2023/07/16 02:06:49;;;;;;;;;;;23.60;64.20;;;;;;5082015;28;19912;-41
2023/07/16 02:09:15;;;;;;;;;;;23.50;64.50;;;;;;5082713;28;19987;-38
2023/07/16 02:11:41;;;;;;;;;;;23.50;64.70;;;;;;5082404;28;19909;-39
2023/07/16 02:14:07;;;;;;;;;;;23.50;64.80;;;;;;5064829;28;19962;-39
2023/07/16 02:16:33;;;;;;;;;;;23.50;64.90;;;;;;5082016;28;19935;-38
2023/07/16 02:18:59;;;;;;;;;;;23.60;65.30;;;;;;5082655;28;19909;-38
2023/07/16 02:21:25;;;;;;;;;;;23.60;65.40;;;;;;5083040;28;19927;-39
2023/07/16 02:23:50;;;;;;;;;;;23.60;65.60;;;;;;5064500;28;19915;-38
2023/07/16 02:26:16;;;;;;;;;;;23.60;65.80;;;;;;5082856;28;19917;-38
2023/07/16 02:28:42;;;;;;;;;;;23.60;66.00;;;;;;5081953;28;19912;-39
2023/07/16 02:31:08;;;;;;;;;;;23.60;66.10;;;;;;5082678;28;20388;-39
2023/07/16 02:33:34;;;;;;;;;;;23.60;66.30;;;;;;5082249;28;20304;-39
2023/07/16 02:36:00;;;;;;;;;;;23.70;66.50;;;;;;5081288;28;19912;-38
2023/07/16 02:38:26;;;;;;;;;;;23.70;66.60;;;;;;5082354;28;19912;-38
2023/07/16 02:40:51;;;;;;;;;;;23.70;67.50;;;;;;5082240;28;20426;-39
2023/07/16 02:43:17;;;;;;;;;;;23.70;67.00;;;;;;5082632;28;19912;-39
2023/07/16 02:45:43;;;;;;;;;;;23.70;67.10;;;;;;5081682;28;19920;-39
2023/07/16 02:48:09;;;;;;;;;;;23.70;67.20;;;;;;5082653;28;19944;-39
2023/07/16 02:50:38;;;;;;;;;;;23.70;67.30;;;;;;5081793;28;19912;-39
2023/07/16 02:53:04;;;;;;;;;;;23.80;67.50;;;;;;5072713;28;19920;-39
2023/07/16 02:55:30;;;;;;;;;;;23.80;67.50;;;;;;5079277;28;20312;-38
2023/07/16 02:57:56;;;;;;;;;;;23.80;67.50;;;;;;5082469;28;20719;-39
2023/07/16 03:00:22;;;;;;;;;;;23.80;67.60;;;;;;5081930;28;19920;-39
2023/07/16 03:02:49;;;;;;;;;;;23.80;67.60;;;;;;5081972;28;19920;-39
2023/07/16 03:05:16;;;;;;;;;;;23.80;67.60;;;;;;5082128;28;19934;-38
2023/07/16 03:07:42;;;;;;;;;;;23.90;67.60;;;;;;5081261;28;19995;-38
2023/07/16 03:10:08;;;;;;;;;;;23.90;67.60;;;;;;5077101;28;19912;-39
2023/07/16 03:12:34;;;;;;;;;;;23.90;67.70;;;;;;5082399;28;19908;-39
2023/07/16 03:15:00;;;;;;;;;;;23.90;67.70;;;;;;5086117;28;19920;-38
2023/07/16 03:17:26;;;;;;;;;;;23.90;67.70;;;;;;5085878;28;19926;-39
2023/07/16 03:19:51;;;;;;;;;;;23.90;67.90;;;;;;5085582;28;19995;-38
2023/07/16 03:22:17;;;;;;;;;;;24.00;68.00;;;;;;5086385;28;20075;-38
2023/07/16 03:24:43;;;;;;;;;;;24.00;68.10;;;;;;5086013;28;20277;-39
2023/07/16 03:27:09;;;;;;;;;;;24.00;68.20;;;;;;5085874;28;19915;-38
2023/07/16 03:29:35;;;;;;;;;;;24.00;68.30;;;;;;5085261;28;19915;-39
2023/07/16 03:32:01;;;;;;;;;;;24.00;68.30;;;;;;5083741;28;20010;-39
2023/07/16 03:34:26;;;;;;;;;;;24.00;68.40;;;;;;5079448;28;19909;-39
2023/07/16 03:36:52;;;;;;;;;;;24.00;68.30;;;;;;5084927;28;19923;-39
2023/07/16 03:39:18;;;;;;;;;;;24.00;68.30;;;;;;5085656;28;19912;-39
2023/07/16 03:41:44;;;;;;;;;;;24.10;68.30;;;;;;5085334;28;20269;-39
2023/07/16 03:44:10;;;;;;;;;;;24.10;68.10;;;;;;5085530;28;19912;-38
2023/07/16 03:46:36;;;;;;;;;;;24.10;68.10;;;;;;5085041;28;19904;-39
2023/07/16 03:49:02;;;;;;;;;;;24.10;68.20;;;;;;5080000;28;19923;-39
2023/07/16 03:51:27;;;;;;;;;;;24.10;68.00;;;;;;5085606;28;19912;-38
2023/07/16 03:53:53;;;;;;;;;;;24.10;68.00;;;;;;5085331;28;19991;-39
2023/07/16 03:56:19;;;;;;;;;;;24.10;68.80;;;;;;5084484;28;19908;-39
2023/07/16 03:58:45;;;;;;;;;;;24.10;68.10;;;;;;5085302;28;20440;-39
2023/07/16 04:01:11;;;;;;;;;;;24.10;68.20;;;;;;5085067;28;19952;-44
2023/07/16 04:03:37;;;;;;;;;;;24.10;68.40;;;;;;5085233;28;19912;-39
2023/07/16 04:06:03;;;;;;;;;;;24.10;68.50;;;;;;5085168;28;19920;-39
2023/07/16 04:08:29;;;;;;;;;;;24.20;68.60;;;;;;5085093;28;19917;-39
2023/07/16 04:10:55;;;;;;;;;;;24.20;68.70;;;;;;5084468;28;19912;-39
2023/07/16 04:13:21;;;;;;;;;;;24.20;69.60;;;;;;5085298;28;19912;-39
2023/07/16 04:15:47;;;;;;;;;;;24.20;68.80;;;;;;5084358;28;19972;-39
2023/07/16 04:18:13;;;;;;;;;;;24.20;68.90;;;;;;5084843;28;19912;-39
2023/07/16 04:20:38;;;;;;;;;;;24.20;68.80;;;;;;5084412;28;20365;-38
2023/07/16 04:23:04;;;;;;;;;;;24.20;68.80;;;;;;5084638;28;20042;-39
2023/07/16 04:25:30;;;;;;;;;;;24.20;68.60;;;;;;5084890;28;19912;-39
2023/07/16 04:27:56;;;;;;;;;;;24.20;69.30;;;;;;5084272;28;19994;-39
2023/07/16 04:30:22;;;;;;;;;;;24.20;68.60;;;;;;5083989;28;19934;-39
2023/07/16 04:32:48;;;;;;;;;;;24.20;68.60;;;;;;5083598;28;19913;-38
2023/07/16 04:35:14;;;;;;;;;;;24.30;68.60;;;;;;5077973;28;19908;-39
2023/07/16 04:37:39;;;;;;;;;;;24.30;68.70;;;;;;5083787;28;19919;-39
2023/07/16 04:40:26;;;;;;;;;;;24.30;68.80;;;;;;5084093;28;19971;-39
2023/07/16 04:42:51;;;;;;;;;;;24.30;68.80;;;;;;5041741;28;19928;-38
2023/07/16 04:45:17;;;;;;;;;;;24.30;68.80;;;;;;5042022;28;19909;-38
2023/07/16 04:47:43;;;;;;;;;;;24.30;68.80;;;;;;5041502;28;20016;-39
2023/07/16 04:50:09;;;;;;;;;;;24.30;69.00;;;;;;5041662;28;19909;-39
2023/07/16 04:52:35;;;;;;;;;;;24.30;69.20;;;;;;5041265;28;20435;-39
2023/07/16 04:55:01;;;;;;;;;;;24.30;69.20;;;;;;5037861;28;19920;-38
2023/07/16 04:57:27;;;;;;;;;;;24.30;69.20;;;;;;5037391;28;19909;-39
2023/07/16 04:59:53;;;;;;;;;;;24.30;69.20;;;;;;5040516;28;19913;-39
2023/07/16 05:02:19;;;;;;;;;;;24.30;69.30;;;;;;5041796;28;19960;-39
2023/07/16 05:04:47;;;;;;;;;;;24.30;69.40;;;;;;5032914;28;19913;-38
2023/07/16 05:07:14;;;;;;;;;;;24.30;69.40;;;;;;5040477;28;19921;-38
2023/07/16 05:09:39;;;;;;;;;;;24.30;69.20;;;;;;5041474;28;19913;-38
2023/07/16 05:12:06;;;;;;;;;;;24.30;69.10;;;;;;5039788;28;19920;-39
2023/07/16 05:14:31;;;;;;;;;;;24.30;69.10;;;;;;5040536;28;19943;-39
2023/07/16 05:16:57;;;;;;;;;;;24.30;68.90;;;;;;5020645;28;20028;-39
2023/07/16 05:19:23;;;;;;;;;;;24.30;68.70;;;;;;5052134;28;20361;-38
2023/07/16 05:21:49;;;;;;;;;;;24.40;68.60;;;;;;5083159;28;20664;-39
2023/07/16 05:24:15;;;;;;;;;;;24.40;68.30;;;;;;5082873;28;19947;-38
2023/07/16 05:26:41;;;;;;;;;;;24.40;68.30;;;;;;5083564;28;19961;-39
2023/07/16 05:29:07;;;;;;;;;;;24.40;68.90;;;;;;5083757;28;19912;-39
2023/07/16 05:31:33;;;;;;;;;;;24.40;68.40;;;;;;5082968;28;19972;-38
2023/07/16 05:33:58;;;;;;;;;;;24.40;68.80;;;;;;5083600;28;19912;-38
2023/07/16 05:36:24;;;;;;;;;;;24.40;69.00;;;;;;5082035;28;19978;-38
2023/07/16 05:38:50;;;;;;;;;;;24.40;69.20;;;;;;5083107;28;19912;-38
2023/07/16 05:41:16;;;;;;;;;;;24.40;69.30;;;;;;5083026;28;19978;-39
2023/07/16 05:43:42;;;;;;;;;;;24.40;69.50;;;;;;5083180;28;19913;-38
2023/07/16 05:46:08;;;;;;;;;;;24.40;69.60;;;;;;5083225;28;19943;-39
2023/07/16 05:48:33;;;;;;;;;;;24.40;69.70;;;;;;5083175;28;19921;-38
2023/07/16 05:50:59;;;;;;;;;;;24.40;69.80;;;;;;5082649;28;19975;-38
2023/07/16 05:53:25;;;;;;;;;;;24.40;69.70;;;;;;5083528;28;19913;-39
2023/07/16 05:55:52;;;;;;;;;;;24.40;69.50;;;;;;5082865;28;19912;-38
2023/07/16 05:58:17;;;;;;;;;;;24.40;69.30;;;;;;5077897;28;20388;-38
2023/07/16 06:00:43;;;;;;;;;;;24.40;69.10;;;;;;5080581;28;19916;-38
2023/07/16 06:03:09;;;;;;;;;;;24.40;68.90;;;;;;5083147;28;19912;-39
2023/07/16 06:05:36;;;;;;;;;;;24.40;68.80;;;;;;5082095;28;19912;-39
2023/07/16 06:08:02;;;;;;;;;;;24.40;68.70;;;;;;5075913;28;19950;-39
2023/07/16 06:10:28;;;;;;;;;;;24.50;68.80;;;;;;5082910;28;19917;-39
2023/07/16 06:12:54;;;;;;;;;;;24.40;68.50;;;;;;5082633;28;19909;-39
2023/07/16 06:15:20;;;;;;;;;;;24.40;68.60;;;;;;5082774;28;20691;-38
2023/07/16 06:17:46;;;;;;;;;;;24.40;68.90;;;;;;5082831;28;19919;-39
2023/07/16 06:20:12;;;;;;;;;;;24.50;69.20;;;;;;5083095;28;19909;-38
2023/07/16 06:22:37;;;;;;;;;;;24.50;69.60;;;;;;5082393;28;19916;-38
2023/07/16 06:25:04;;;;;;;;;;;24.50;70.10;;;;;;5082914;28;19913;-38
2023/07/16 06:27:30;;;;;;;;;;;24.50;70.30;;;;;;5082638;28;19908;-38
2023/07/16 06:29:56;;;;;;;;;;;24.50;70.30;;;;;;5082165;28;19914;-39
2023/07/16 06:32:22;;;;;;;;;;;24.50;70.30;;;;;;5082544;28;19916;-38
2023/07/16 06:34:48;;;;;;;;;;;24.50;70.40;;;;;;5075698;28;19913;-38
2023/07/16 06:37:13;;;;;;;;;;;24.50;70.40;;;;;;5082453;28;19932;-38
2023/07/16 06:39:39;;;;;;;;;;;24.40;70.00;;;;;;5082278;28;19948;-38
2023/07/16 06:42:05;;;;;;;;;;;24.50;69.90;;;;;;5081726;28;19975;-39
2023/07/16 06:44:31;;;;;;;;;;;24.50;69.50;;;;;;5082314;28;19940;-38
2023/07/16 06:46:57;;;;;;;;;;;24.50;69.40;;;;;;5086112;28;19940;-38
2023/07/16 06:49:23;;;;;;;;;;;24.50;69.40;;;;;;5089307;28;19908;-38
2023/07/16 06:51:49;;;;;;;;;;;24.40;69.30;;;;;;5088279;28;19923;-39
2023/07/16 06:54:15;;;;;;;;;;;24.40;69.30;;;;;;5089310;28;20453;-39
2023/07/16 06:56:41;;;;;;;;;;;24.50;69.30;;;;;;5088910;28;19911;-38
2023/07/16 06:59:06;;;;;;;;;;;24.50;69.30;;;;;;5081639;28;19912;-38
2023/07/16 07:01:32;;;;;;;;;;;24.50;69.60;;;;;;5088754;28;20379;-38
2023/07/16 07:03:58;;;;;;;;;;;24.50;69.70;;;;;;5085425;28;19923;-39
2023/07/16 07:06:44;;;;;;;;;;;24.50;70.40;;;;;;5084049;28;19909;-39
2023/07/16 07:09:10;;;;;;;;;;;24.50;70.40;;;;;;5006766;28;19922;-39
2023/07/16 07:11:36;;;;;;;;;;;24.50;70.60;;;;;;5006424;28;19957;-39
2023/07/16 07:14:02;;;;;;;;;;;24.50;70.90;;;;;;4999882;28;19917;-38
2023/07/16 07:16:28;;;;;;;;;;;24.50;70.90;;;;;;5006699;28;19909;-39
2023/07/16 07:18:53;;;;;;;;;;;24.50;70.90;;;;;;5006511;28;19916;-39
2023/07/16 07:21:19;;;;;;;;;;;24.50;70.90;;;;;;4998946;28;19924;-38
2023/07/16 07:23:45;;;;;;;;;;;24.50;70.80;;;;;;5005122;28;20425;-38
2023/07/16 07:26:11;;;;;;;;;;;24.40;70.30;;;;;;5006736;28;19910;-38
2023/07/16 07:28:57;;;;;;;;;;;24.40;70.00;;;;;;5006040;28;19992;-38
2023/07/16 07:31:23;;;;;;;;;;;24.50;69.80;;;;;;4940988;29;19950;-38
2023/07/16 07:33:49;;;;;;;;;;;24.50;69.60;;;;;;4936650;29;22255;-39
2023/07/16 07:36:14;;;;;;;;;;;24.50;69.60;;;;;;4923314;29;19923;-38
2023/07/16 07:38:40;;;;;;;;;;;24.50;69.50;;;;;;4935872;29;19949;-38
2023/07/16 07:41:06;;;;;;;;;;;24.50;69.50;;;;;;4933902;29;19922;-38
2023/07/16 07:43:32;;;;;;;;;;;24.50;69.40;;;;;;4945807;29;19918;-39
2023/07/16 07:45:58;;;;;;;;;;;24.40;69.50;;;;;;4963006;28;19987;-39
2023/07/16 07:48:24;;;;;;;;;;;24.50;70.00;;;;;;5020635;28;19916;-38
2023/07/16 07:50:50;;;;;;;;;;;24.50;70.30;;;;;;5016260;28;19913;-38
2023/07/16 07:53:17;;;;;;;;;;;24.50;70.50;;;;;;5018319;28;19951;-39
2023/07/16 07:55:44;;;;;;;;;;;24.40;71.50;;;;;;5011796;28;19984;-38
2023/07/16 07:58:09;;;;;;;;;;;24.50;70.90;;;;;;5000134;28;19981;-39
2023/07/16 08:00:35;;;;;;;;;;;24.40;70.80;;;;;;5009381;28;19925;-39
2023/07/16 08:03:01;;;;;;;;;;;24.40;70.70;;;;;;5011514;28;19964;-38
2023/07/16 08:05:27;;;;;;;;;;;24.40;70.80;;;;;;4999354;28;19914;-38
2023/07/16 08:07:55;;;;;;;;;;;24.40;70.70;;;;;;5031236;28;20328;-39
2023/07/16 08:10:21;;;;;;;;;;;24.40;70.60;;;;;;5065090;28;19913;-39
2023/07/16 08:12:47;;;;;;;;;;;24.40;70.50;;;;;;5064842;28;20726;-39
2023/07/16 08:15:16;;;;;;;;;;;24.40;70.10;;;;;;5064929;28;19913;-38
2023/07/16 08:17:42;;;;;;;;;;;24.40;70.00;;;;;;5064897;28;19909;-38
2023/07/16 08:20:08;;;;;;;;;;;24.50;70.00;;;;;;5065065;28;19923;-38
2023/07/16 08:22:34;;;;;;;;;;;24.40;70.00;;;;;;5064304;28;20452;-38
2023/07/16 08:25:00;;;;;;;;;;;24.40;70.10;;;;;;5065115;28;19919;-38
2023/07/16 08:27:26;;;;;;;;;;;24.40;70.00;;;;;;5064899;28;19976;-39
2023/07/16 08:29:52;;;;;;;;;;;24.40;70.40;;;;;;5064139;28;19912;-38
2023/07/16 08:32:18;;;;;;;;;;;24.40;70.60;;;;;;5064784;28;19913;-38
2023/07/16 08:34:44;;;;;;;;;;;24.40;70.80;;;;;;5057683;28;19916;-38
2023/07/16 08:37:10;;;;;;;;;;;24.40;71.00;;;;;;5064125;28;19912;-40
2023/07/16 08:39:36;;;;;;;;;;;24.40;70.80;;;;;;5064157;28;20018;-39
2023/07/16 08:42:01;;;;;;;;;;;24.40;70.90;;;;;;5064139;28;19921;-38
2023/07/16 08:44:27;;;;;;;;;;;24.40;71.10;;;;;;5064272;28;19914;-39
2023/07/16 08:46:53;;;;;;;;;;;24.40;71.00;;;;;;5062963;28;19913;-39
2023/07/16 08:49:20;;;;;;;;;;;24.40;70.90;;;;;;5064698;28;19935;-39
2023/07/16 08:51:46;;;;;;;;;;;24.40;70.80;;;;;;5062988;28;20448;-38
2023/07/16 08:54:15;;;;;;;;;;;24.40;70.70;;;;;;5062348;28;20340;-38
2023/07/16 08:56:41;;;;;;;;;;;24.40;70.40;;;;;;5063667;28;19909;-39
2023/07/16 08:59:07;;;;;;;;;;;24.40;70.30;;;;;;5064522;28;19913;-38
2023/07/16 09:01:33;;;;;;;;;;;24.40;70.30;;;;;;5062798;28;19948;-39
2023/07/16 09:03:59;;;;;;;;;;;24.40;70.30;;;;;;5061496;28;19908;-39
2023/07/16 09:06:25;;;;;;;;;;;24.40;70.20;;;;;;5059408;28;19994;-38
2023/07/16 09:08:51;;;;;;;;;;;24.40;70.20;;;;;;5079756;28;19928;-38
2023/07/16 09:11:21;;;;;;;;;;;24.40;70.30;;;;;;5083972;28;19912;-39
2023/07/16 09:13:46;;;;;;;;;;;24.40;70.30;;;;;;5083220;28;19912;-38
2023/07/16 09:16:12;;;;;;;;;;;24.40;70.30;;;;;;5083883;28;19912;-38
2023/07/16 09:18:39;;;;;;;;;;;24.40;70.20;;;;;;5082716;28;19908;-38
2023/07/16 09:21:06;;;;;;;;;;;24.40;70.30;;;;;;5083552;28;19916;-39
2023/07/16 09:23:32;;;;;;;;;;;24.40;70.30;;;;;;5083048;28;20003;-38
2023/07/16 09:25:58;;;;;;;;;;;24.40;70.40;;;;;;5083837;28;19912;-39
2023/07/16 09:28:24;;;;;;;;;;;24.40;70.40;;;;;;5077063;28;19948;-38
2023/07/16 09:30:53;;;;;;;;;;;24.40;70.40;;;;;;5082693;28;19923;-39
2023/07/16 09:33:22;;;;;;;;;;;24.40;70.40;;;;;;5083754;28;19916;-38
2023/07/16 09:35:49;;;;;;;;;;;24.40;70.40;;;;;;5076226;28;19948;-38
2023/07/16 09:38:14;;;;;;;;;;;24.40;70.40;;;;;;5083050;28;19908;-38
2023/07/16 09:40:42;;;;;;;;;;;24.40;70.40;;;;;;5082981;28;19919;-38
2023/07/16 09:43:08;;;;;;;;;;;24.30;70.30;;;;;;5083503;28;19920;-38
2023/07/16 09:45:34;;;;;;;;;;;24.40;70.60;;;;;;5082546;28;20484;-39
2023/07/16 09:48:00;;;;;;;;;;;24.40;70.80;;;;;;5083541;28;19971;-39
2023/07/16 09:50:32;;;;;;;;;;;24.40;70.90;;;;;;5082803;28;19908;-39
2023/07/16 09:52:58;;;;;;;;;;;24.30;71.00;;;;;;5083076;28;19958;-39
2023/07/16 09:55:24;;;;;;;;;;;24.30;71.10;;;;;;5078222;28;19916;-38
2023/07/16 09:57:50;;;;;;;;;;;24.40;71.20;;;;;;5082657;28;19916;-38
2023/07/16 10:00:16;;;;;;;;;;;24.30;71.10;;;;;;5062241;28;19916;-38
2023/07/16 10:02:42;;;;;;;;;;;24.30;71.10;;;;;;5064988;28;19994;-38
2023/07/16 10:05:18;;;;;;;;;;;24.30;71.10;;;;;;5075737;28;20397;-39
2023/07/16 10:08:04;;;;;;;;;;;24.30;71.10;;;;;;5071252;28;19962;-37
2023/07/16 10:10:39;;;;;;;;;;;24.30;71.00;;;;;;5066896;28;19908;-38
2023/07/16 10:13:06;;;;;;;;;;;24.30;70.80;;;;;;5066846;28;19913;-39
2023/07/16 10:15:32;;;;;;;;;;;24.30;70.90;;;;;;5065956;28;19912;-38
2023/07/16 10:17:58;;;;;;;;;;;24.30;70.80;;;;;;5067024;28;19975;-39
2023/07/16 10:20:30;;;;;;;;;;;24.30;70.80;;;;;;5070856;28;19962;-38
2023/07/16 10:22:56;;;;;;;;;;;24.30;70.80;;;;;;5069811;28;19923;-38
2023/07/16 10:25:26;;;;;;;;;;;24.30;70.80;;;;;;5067468;28;19912;-38
2023/07/16 10:27:53;;;;;;;;;;;24.30;70.90;;;;;;5067085;28;20391;-39
2023/07/16 10:30:19;;;;;;;;;;;24.30;71.10;;;;;;5064983;28;19979;-38
2023/07/16 10:32:45;;;;;;;;;;;24.30;71.30;;;;;;5064497;28;19950;-38
2023/07/16 10:35:11;;;;;;;;;;;24.30;71.30;;;;;;5068464;28;19920;-39
2023/07/16 10:37:37;;;;;;;;;;;24.30;71.40;;;;;;5079883;28;19916;-38
2023/07/16 10:40:03;;;;;;;;;;;24.30;71.50;;;;;;5075401;28;19943;-38
2023/07/16 10:42:29;;;;;;;;;;;24.30;71.50;;;;;;5082187;28;20004;-38
2023/07/16 10:44:57;;;;;;;;;;;24.30;71.50;;;;;;5082060;28;19913;-38
2023/07/16 10:47:24;;;;;;;;;;;24.30;71.50;;;;;;5082259;28;19909;-38
2023/07/16 10:49:51;;;;;;;;;;;24.30;71.50;;;;;;5082200;28;19938;-38
2023/07/16 10:52:17;;;;;;;;;;;24.30;71.40;;;;;;5081934;28;20007;-38
2023/07/16 10:54:43;;;;;;;;;;;24.30;71.30;;;;;;5082013;28;19942;-38
2023/07/16 10:57:10;;;;;;;;;;;24.30;71.20;;;;;;5082394;28;19908;-38
2023/07/16 10:59:37;;;;;;;;;;;24.30;71.20;;;;;;5081906;28;19931;-39
2023/07/16 11:02:03;;;;;;;;;;;24.30;71.20;;;;;;5073646;28;20360;-38
2023/07/16 11:04:33;;;;;;;;;;;24.30;71.10;;;;;;5057846;28;19919;-38
2023/07/16 11:06:59;;;;;;;;;;;24.30;71.20;;;;;;5074760;28;19912;-39
2023/07/16 11:09:24;;;;;;;;;;;24.30;71.20;;;;;;5081973;28;19920;-38
2023/07/16 11:11:50;;;;;;;;;;;24.30;71.30;;;;;;5080873;28;19995;-39
2023/07/16 11:14:16;;;;;;;;;;;24.20;71.50;;;;;;5081934;28;19917;-38
2023/07/16 11:16:42;;;;;;;;;;;24.20;71.40;;;;;;5063647;28;19912;-39
2023/07/16 11:19:08;;;;;;;;;;;24.20;71.50;;;;;;5082274;28;19908;-38
2023/07/16 11:21:34;;;;;;;;;;;24.20;71.60;;;;;;5081883;28;19954;-38
2023/07/16 11:24:10;;;;;;;;;;;24.20;71.60;;;;;;5063668;28;19908;-39
2023/07/16 11:26:36;;;;;;;;;;;24.20;71.60;;;;;;5080387;28;20368;-38
2023/07/16 11:29:11;;;;;;;;;;;24.20;71.70;;;;;;5081858;28;19908;-38
2023/07/16 11:31:38;;;;;;;;;;;24.20;71.70;;;;;;5081621;28;19916;-38
2023/07/16 11:34:07;;;;;;;;;;;24.20;71.70;;;;;;5081835;28;19934;-38
2023/07/16 11:36:33;;;;;;;;;;;24.20;71.70;;;;;;5085140;28;19912;-39
2023/07/16 11:38:59;;;;;;;;;;;24.20;71.70;;;;;;5082782;28;19936;-39
2023/07/16 11:41:25;;;;;;;;;;;24.20;71.60;;;;;;5081479;28;19925;-38
2023/07/16 11:43:51;;;;;;;;;;;24.20;71.50;;;;;;5084961;28;19923;-38
2023/07/16 11:46:17;;;;;;;;;;;24.20;71.50;;;;;;5083727;28;19916;-38
2023/07/16 11:48:42;;;;;;;;;;;24.20;71.50;;;;;;5083529;28;19947;-38
2023/07/16 11:51:08;;;;;;;;;;;24.20;71.50;;;;;;5085430;28;19942;-39
2023/07/16 11:53:34;;;;;;;;;;;24.20;71.50;;;;;;5085062;28;19912;-38
2023/07/16 11:56:00;;;;;;;;;;;24.20;71.70;;;;;;5085236;28;19920;-38
2023/07/16 11:58:26;;;;;;;;;;;24.20;71.90;;;;;;5077546;28;19919;-38
2023/07/16 12:00:53;;;;;;;;;;;24.20;71.90;;;;;;5084870;28;19912;-38
2023/07/16 12:03:19;;;;;;;;;;;24.20;72.00;;;;;;5085625;28;19920;-39
2023/07/16 12:05:45;;;;;;;;;;;24.20;72.00;;;;;;5078310;28;19919;-39
2023/07/16 12:08:13;;;;;;;;;;;24.20;72.10;;;;;;5084646;28;19923;-39
2023/07/16 12:10:42;;;;;;;;;;;24.20;72.10;;;;;;5077355;28;19915;-38
2023/07/16 12:13:10;;;;;;;;;;;24.20;72.20;;;;;;5085163;28;19924;-38
2023/07/16 12:15:36;;;;;;;;;;;24.20;72.40;;;;;;5084516;28;19912;-39
2023/07/16 12:18:03;;;;;;;;;;;24.20;72.30;;;;;;5084226;28;19930;-38
2023/07/16 12:20:28;;;;;;;;;;;24.20;72.00;;;;;;5085061;28;20368;-38
2023/07/16 12:22:54;;;;;;;;;;;24.20;71.90;;;;;;5084513;28;19951;-38
2023/07/16 12:25:20;;;;;;;;;;;24.20;71.90;;;;;;5084255;28;20288;-38
2023/07/16 12:27:46;;;;;;;;;;;24.20;71.80;;;;;;5084212;28;19958;-38
2023/07/16 12:30:12;;;;;;;;;;;24.20;71.90;;;;;;5084640;28;19913;-38
2023/07/16 12:32:38;;;;;;;;;;;24.20;71.80;;;;;;5084670;28;20261;-38
2023/07/16 12:35:04;;;;;;;;;;;24.20;71.80;;;;;;5077052;28;19953;-38
2023/07/16 12:37:30;;;;;;;;;;;24.20;71.90;;;;;;5070246;28;19923;-38
2023/07/16 12:39:56;;;;;;;;;;;24.20;72.10;;;;;;5073444;28;19912;-38
2023/07/16 12:42:22;;;;;;;;;;;24.20;72.30;;;;;;5074734;28;19924;-38
2023/07/16 12:44:49;;;;;;;;;;;24.20;72.50;;;;;;5069387;28;19919;-38
2023/07/16 12:47:15;;;;;;;;;;;24.20;72.70;;;;;;5069371;28;19996;-38
2023/07/16 12:49:41;;;;;;;;;;;24.20;72.80;;;;;;5070877;28;19944;-38
2023/07/16 12:52:07;;;;;;;;;;;24.20;72.80;;;;;;5072450;28;19920;-39
2023/07/16 12:54:33;;;;;;;;;;;24.20;72.90;;;;;;5072289;28;20261;-38
2023/07/16 12:56:59;;;;;;;;;;;24.20;72.80;;;;;;5073564;28;19923;-38
2023/07/16 12:59:25;;;;;;;;;;;24.20;72.70;;;;;;5070312;28;20019;-39
2023/07/16 13:01:51;;;;;;;;;;;24.20;72.70;;;;;;5069129;28;19935;-39
2023/07/16 13:04:17;;;;;;;;;;;24.20;72.60;;;;;;5065785;28;19939;-39
2023/07/16 13:06:45;;;;;;;;;;;24.20;72.40;;;;;;5081592;28;19912;-38
2023/07/16 13:09:11;;;;;;;;;;;24.20;72.30;;;;;;5079121;28;20000;-38
2023/07/16 13:11:37;;;;;;;;;;;24.20;72.30;;;;;;5079904;28;19958;-38
2023/07/16 13:14:03;;;;;;;;;;;24.30;72.60;;;;;;5083976;28;19974;-38
2023/07/16 13:16:28;;;;;;;;;;;24.30;72.60;;;;;;5084030;28;19908;-38
2023/07/16 13:18:54;;;;;;;;;;;24.30;72.60;;;;;;5083285;28;19954;-38
2023/07/16 13:21:20;;;;;;;;;;;24.30;72.70;;;;;;5083323;28;19934;-38
2023/07/16 13:23:46;;;;;;;;;;;24.30;72.80;;;;;;5075750;28;19913;-38
2023/07/16 13:26:12;;;;;;;;;;;24.30;73.00;;;;;;5083338;28;19919;-38
2023/07/16 13:28:38;;;;;;;;;;;24.30;73.00;;;;;;5081387;28;19989;-39
2023/07/16 13:31:03;;;;;;;;;;;24.30;73.00;;;;;;5083794;28;20447;-38
2023/07/16 13:33:30;;;;;;;;;;;24.30;73.00;;;;;;5083632;28;20368;-38
2023/07/16 13:35:57;;;;;;;;;;;24.30;72.90;;;;;;5083214;28;19915;-38
2023/07/16 13:38:22;;;;;;;;;;;24.30;72.90;;;;;;5082708;28;19967;-39
2023/07/16 13:40:48;;;;;;;;;;;24.30;72.90;;;;;;5081533;28;19908;-38
2023/07/16 13:43:14;;;;;;;;;;;24.30;73.00;;;;;;5083533;28;19953;-39
2023/07/16 13:45:40;;;;;;;;;;;24.40;73.40;;;;;;5082848;28;19913;-38
2023/07/16 13:48:06;;;;;;;;;;;24.40;73.50;;;;;;5082932;28;19908;-39
2023/07/16 13:50:32;;;;;;;;;;;24.40;73.60;;;;;;5082795;28;19987;-39
2023/07/16 13:53:01;;;;;;;;;;;24.40;73.70;;;;;;5083228;28;19912;-39
2023/07/16 13:55:28;;;;;;;;;;;24.40;73.80;;;;;;5083027;28;19908;-39
2023/07/16 13:57:55;;;;;;;;;;;24.40;73.90;;;;;;5081981;28;19908;-39
2023/07/16 14:00:21;;;;;;;;;;;24.40;73.80;;;;;;5063349;28;19919;-39
2023/07/16 14:02:47;;;;;;;;;;;24.50;73.90;;;;;;5082908;28;20354;-39
2023/07/16 14:05:13;;;;;;;;;;;24.50;73.90;;;;;;5079405;28;20367;-39
2023/07/16 14:07:39;;;;;;;;;;;24.50;73.90;;;;;;5078048;28;19921;-39
2023/07/16 14:10:05;;;;;;;;;;;24.50;73.90;;;;;;5082474;28;19909;-39
2023/07/16 14:12:31;;;;;;;;;;;24.50;74.00;;;;;;5082901;28;19912;-38